Time;durP1;ratioP1;P1;durP2;ratioP2;P2;SDS_P1;SDS_P2;PMS_P1;PMS_P2;Temp;Humidity;BMP_temperature;BMP_pressure;BME280_temperature;BME280_humidity;BME280_pressure;Samples;Min_cycle;Max_cycle;Signal;HPM_P1;HPM_P2
2022/12/14 07:19:05;;;;;;;;;7.50;7.50;;;;;17.45;38.62;99674.84;5122167;27;45875;-78
2022/12/14 07:21:31;;;;;;;;;8.50;8.00;;;;;17.86;39.07;99680.53;5119432;27;45459;-76
2022/12/14 07:23:59;;;;;;;;;7.00;7.00;;;;;18.48;39.33;99672.53;5104355;27;45505;-75
2022/12/14 07:26:26;;;;;;;;;7.00;7.00;;;;;19.13;39.52;99679.16;5111156;27;45542;-75
2022/12/14 07:28:52;;;;;;;;;5.25;3.50;;;;;19.75;38.74;99683.22;5112433;27;45437;-74
2022/12/14 07:31:23;;;;;;;;;6.25;6.00;;;;;20.37;39.00;99696.31;5102099;27;45849;-74
2022/12/14 07:33:53;;;;;;;;;8.00;8.00;;;;;20.89;38.79;99691.44;5109014;27;45445;-75
2022/12/14 07:36:20;;;;;;;;;9.25;7.75;;;;;21.33;38.33;99703.47;5107911;27;45432;-75
2022/12/14 07:38:47;;;;;;;;;6.00;5.50;;;;;21.77;38.04;99709.25;5110183;27;46225;-74
2022/12/14 07:41:18;;;;;;;;;6.50;6.50;;;;;22.07;38.00;99710.16;5115145;27;45331;-81
2022/12/14 07:43:45;;;;;;;;;6.00;5.50;;;;;22.40;37.44;99716.25;5114457;27;45467;-79
2022/12/14 07:46:16;;;;;;;;;6.25;6.25;;;;;22.68;37.04;99719.16;5115763;27;45420;-80
2022/12/14 07:48:47;;;;;;;;;7.00;7.00;;;;;22.89;37.15;99718.41;5111442;27;45653;-77
2022/12/14 07:51:15;;;;;;;;;7.00;6.75;;;;;23.11;37.05;99714.91;5110078;27;45366;-79
2022/12/14 07:53:41;;;;;;;;;7.75;6.25;;;;;23.25;37.21;99713.16;5108862;27;45391;-78
2022/12/14 07:56:19;;;;;;;;;7.75;7.00;;;;;23.45;36.65;99720.72;5109492;27;45383;-75
2022/12/14 07:58:44;;;;;;;;;8.50;6.50;;;;;23.58;36.41;99720.00;5101509;27;46422;-72
2022/12/14 08:01:14;;;;;;;;;5.00;5.00;;;;;23.71;36.73;99714.72;5110870;27;45421;-75
2022/12/14 08:03:41;;;;;;;;;7.00;7.00;;;;;23.74;36.49;99713.50;5112059;27;45461;-75
2022/12/14 08:06:08;;;;;;;;;8.00;8.00;;;;;23.90;36.17;99723.19;5102901;27;45615;-75
2022/12/14 08:08:34;;;;;;;;;8.00;8.00;;;;;24.01;35.99;99724.53;5091323;27;46282;-75
2022/12/14 08:11:00;;;;;;;;;7.33;6.67;;;;;24.08;35.84;99730.84;5102217;27;45731;-70
2022/12/14 08:13:26;;;;;;;;;7.67;7.00;;;;;24.13;36.10;99723.00;5110857;27;45432;-73
2022/12/14 08:15:51;;;;;;;;;8.33;8.33;;;;;24.25;35.88;99731.44;5110738;27;45463;-71
2022/12/14 08:18:16;;;;;;;;;8.67;8.00;;;;;24.31;35.92;99724.34;5107251;27;45640;-75
2022/12/14 08:20:42;;;;;;;;;5.33;5.33;;;;;24.36;35.58;99735.44;5106670;27;47664;-72
2022/12/14 08:23:07;;;;;;;;;6.33;6.00;;;;;24.45;35.51;99742.38;5105506;27;45940;-72
2022/12/14 08:25:32;;;;;;;;;6.00;6.00;;;;;24.51;35.77;99737.19;5115320;27;45505;-74
2022/12/14 08:27:58;;;;;;;;;8.00;8.00;;;;;24.55;35.42;99731.19;5101875;27;46086;-72
2022/12/14 08:30:23;;;;;;;;;5.67;5.67;;;;;24.64;35.41;99739.19;5093670;27;45522;-71
2022/12/14 08:32:48;;;;;;;;;5.67;5.67;;;;;24.68;35.35;99732.31;5101141;27;45713;-72
2022/12/14 08:35:14;;;;;;;;;7.00;5.67;;;;;24.70;35.25;99725.66;5096927;27;45524;-70
2022/12/14 08:37:39;;;;;;;;;7.67;6.33;;;;;24.78;35.16;99737.34;5091804;27;45403;-72
2022/12/14 08:40:05;;;;;;;;;8.00;6.00;;;;;24.79;35.13;99734.44;5102155;27;45951;-72
2022/12/14 08:42:30;;;;;;;;;6.00;6.00;;;;;24.85;35.39;99738.28;5097355;27;45579;-71
2022/12/14 08:44:56;;;;;;;;;8.00;8.00;;;;;24.89;34.97;99747.66;5091960;27;45464;-70
2022/12/14 08:47:21;;;;;;;;;7.00;7.00;;;;;24.89;34.95;99744.13;5092650;27;45456;-71
2022/12/14 08:49:46;;;;;;;;;8.33;8.33;;;;;24.92;34.70;99751.84;5098761;27;45733;-72
2022/12/14 08:52:12;;;;;;;;;8.67;8.00;;;;;24.94;34.93;99747.06;5097750;27;45374;-73
2022/12/14 08:54:37;;;;;;;;;7.00;7.00;;;;;25.00;34.94;99749.81;5090138;27;45466;-74
2022/12/14 08:57:03;;;;;;;;;6.33;6.33;;;;;25.02;34.66;99749.63;5083036;27;46305;-71
2022/12/14 08:59:28;;;;;;;;;8.00;8.00;;;;;25.01;34.61;99756.06;5105188;27;45521;-74
2022/12/14 09:01:54;;;;;;;;;8.33;6.33;;;;;25.10;34.74;99767.59;5093035;27;45533;-73
2022/12/14 09:04:19;;;;;;;;;7.00;7.00;;;;;25.10;34.95;99768.41;5093090;27;45513;-74
2022/12/14 09:06:45;;;;;;;;;6.00;6.00;;;;;25.09;34.64;99761.31;5096694;27;47364;-74
2022/12/14 09:09:10;;;;;;;;;8.33;6.67;;;;;25.12;34.60;99769.06;5095377;27;45355;-73
2022/12/14 09:11:35;;;;;;;;;9.33;8.67;;;;;25.12;34.45;99760.94;5095852;27;46089;-73
2022/12/14 09:14:01;;;;;;;;;6.00;5.67;;;;;25.18;34.76;99766.59;5083412;27;45557;-75
2022/12/14 09:16:27;;;;;;;;;7.00;6.00;;;;;25.17;34.67;99763.03;5096318;27;45514;-74
2022/12/14 09:18:53;;;;;;;;;8.33;8.33;;;;;25.24;34.64;99773.91;5097689;27;45530;-73
2022/12/14 09:21:18;;;;;;;;;9.33;7.33;;;;;25.25;34.42;99765.56;5106992;27;45511;-76
2022/12/14 09:23:44;;;;;;;;;8.00;6.33;;;;;25.32;34.16;99783.75;5086315;27;45466;-72
2022/12/14 09:26:16;;;;;;;;;6.00;5.00;;;;;25.30;34.37;99772.28;5093676;27;45456;-74
2022/12/14 09:28:45;;;;;;;;;7.33;7.33;;;;;25.41;34.40;99792.56;5098755;27;45846;-73
2022/12/14 09:31:12;;;;;;;;;7.33;7.33;;;;;25.45;34.24;99804.69;5096974;27;45473;-70
2022/12/14 09:33:38;;;;;;;;;6.33;6.33;;;;;25.48;34.16;99807.84;5089580;27;45430;-72
2022/12/14 09:36:07;;;;;;;;;7.33;7.00;;;;;25.50;34.19;99807.66;5095822;27;45564;-71
2022/12/14 09:38:35;;;;;;;;;8.00;8.00;;;;;25.53;34.26;99820.81;5086063;27;45731;-72
2022/12/14 09:41:04;;;;;;;;;10.67;9.00;;;;;25.55;34.43;99823.31;5093910;27;45377;-71
2022/12/14 09:43:41;;;;;;;;;8.00;7.00;;;;;25.55;34.45;99818.78;5099729;27;45411;-74
2022/12/14 09:46:27;;;;;;;;;6.00;6.00;;;;;25.56;34.07;99822.31;5094166;27;45626;-69
2022/12/14 09:48:55;;;;;;;;;7.00;7.00;;;;;25.47;34.16;99806.16;5111333;27;45541;-71
2022/12/14 09:51:33;;;;;;;;;8.00;7.33;;;;;25.46;34.05;99800.94;5085293;27;45568;-72
2022/12/14 09:54:05;;;;;;;;;7.33;6.67;;;;;25.55;34.03;99821.47;5090992;27;45542;-73
2022/12/14 09:56:32;;;;;;;;;10.00;8.00;;;;;25.54;34.00;99808.88;5094635;27;46202;-72
2022/12/14 09:59:00;;;;;;;;;7.00;7.00;;;;;25.58;34.10;99812.09;5087406;27;45424;-70
2022/12/14 10:02:10;;;;;;;;;9.67;9.67;;;;;25.59;33.94;99813.75;5084100;27;45332;-69
2022/12/14 10:05:01;;;;;;;;;10.33;7.00;;;;;25.60;34.21;99808.13;5078166;27;45540;-69
2022/12/14 10:07:46;;;;;;;;;8.00;7.00;;;;;25.57;33.98;99813.97;5082849;27;45501;-70
2022/12/14 10:10:45;;;;;;;;;7.00;7.00;;;;;25.60;33.80;99812.72;5082248;27;45481;-69
2022/12/14 10:13:38;;;;;;;;;12.33;10.00;;;;;25.56;34.07;99808.72;5093653;27;45560;-69
2022/12/14 10:16:06;;;;;;;;;9.00;9.00;;;;;25.47;34.17;99789.03;5087609;27;45536;-74
2022/12/14 10:18:38;;;;;;;;;10.33;10.33;;;;;25.50;34.29;99804.94;5080121;27;47209;-72
2022/12/14 10:21:17;;;;;;;;;10.67;10.00;;;;;25.46;34.01;99803.66;5090652;27;45798;-70
2022/12/14 10:24:03;;;;;;;;;8.33;8.00;;;;;25.20;33.25;99780.78;5086671;27;45445;-72
2022/12/14 10:26:34;;;;;;;;;11.00;9.67;;;;;25.18;33.33;99772.84;5090465;27;45493;-71
2022/12/14 10:29:09;;;;;;;;;9.33;9.33;;;;;25.01;33.81;99772.34;5085914;27;45621;-72
2022/12/14 10:31:39;;;;;;;;;9.33;9.33;;;;;25.22;33.67;99811.31;5097378;27;45477;-72
2022/12/14 10:34:17;;;;;;;;;10.33;9.67;;;;;25.12;33.67;99801.66;5084452;27;45505;-72
2022/12/14 10:37:21;;;;;;;;;10.67;10.67;;;;;25.13;33.41;99810.63;5086722;27;45466;-72
2022/12/14 10:40:08;;;;;;;;;9.00;9.00;;;;;25.10;33.70;99819.19;5092695;27;45535;-71
2022/12/14 10:42:36;;;;;;;;;11.33;8.00;;;;;25.10;33.23;99811.03;5090559;27;45694;-70
2022/12/14 10:45:14;;;;;;;;;10.33;8.00;;;;;25.09;33.48;99799.34;5086216;27;45360;-70
2022/12/14 10:47:45;;;;;;;;;10.67;9.00;;;;;25.09;33.64;99796.63;5090917;27;45483;-71
2022/12/14 10:50:13;;;;;;;;;9.00;9.00;;;;;25.15;33.13;99805.84;5088935;27;45740;-70
2022/12/14 10:52:41;;;;;;;;;9.67;9.33;;;;;25.12;33.41;99796.22;5093784;27;45430;-71
2022/12/14 10:55:32;;;;;;;;;8.67;6.00;;;;;25.18;33.31;99801.88;5085180;27;45497;-72
2022/12/14 10:57:58;;;;;;;;;11.33;9.67;;;;;25.20;33.31;99807.94;5089398;27;45346;-72
2022/12/14 11:00:23;;;;;;;;;9.00;9.00;;;;;25.20;33.34;99814.22;5088210;27;46074;-72
2022/12/14 11:02:53;;;;;;;;;9.33;8.33;;;;;25.19;33.07;99814.41;5087786;27;45528;-72
2022/12/14 11:05:44;;;;;;;;;13.00;10.00;;;;;25.11;33.04;99816.28;5091517;27;45586;-72
2022/12/14 11:08:37;;;;;;;;;10.00;8.00;;;;;25.18;33.03;99823.59;5087560;27;45465;-72
2022/12/14 11:11:08;;;;;;;;;10.00;8.00;;;;;25.13;32.93;99822.34;5090220;27;48066;-71
2022/12/14 11:13:35;;;;;;;;;14.50;12.00;;;;;25.10;33.15;99820.00;5089668;27;45616;-71
2022/12/14 11:16:17;;;;;;;;;12.67;12.00;;;;;25.11;32.71;99832.56;5091962;27;45619;-71
2022/12/14 11:18:42;;;;;;;;;11.33;10.33;;;;;25.00;32.82;99814.97;5090817;27;45527;-71
2022/12/14 11:21:14;;;;;;;;;9.33;9.33;;;;;25.06;32.88;99834.19;5088832;27;45701;-72
2022/12/14 11:23:46;;;;;;;;;9.00;9.00;;;;;25.09;32.48;99822.94;5092752;27;45394;-72
2022/12/14 11:26:22;;;;;;;;;9.67;8.67;;;;;25.09;33.08;99817.53;5080691;27;45393;-72
2022/12/14 11:28:51;;;;;;;;;9.00;8.33;;;;;25.09;32.72;99814.81;5075596;27;45368;-71
2022/12/14 11:31:19;;;;;;;;;11.33;10.00;;;;;25.10;32.71;99820.00;5077471;27;46441;-72
2022/12/14 11:33:47;;;;;;;;;10.33;10.00;;;;;25.08;32.41;99816.66;5079332;27;45638;-71
2022/12/14 11:36:37;;;;;;;;;9.33;8.00;;;;;25.04;33.11;99809.97;5076392;27;45587;-72
2022/12/14 11:39:21;;;;;;;;;8.33;8.33;;;;;25.07;32.63;99817.72;5074672;27;45540;-71
2022/12/14 11:42:00;;;;;;;;;12.67;9.33;;;;;25.03;32.60;99824.59;5082036;27;46134;-70
2022/12/14 11:44:28;;;;;;;;;10.00;10.00;;;;;25.03;32.91;99823.72;5075401;27;45385;-70
2022/12/14 11:46:57;;;;;;;;;10.67;9.33;;;;;25.06;32.47;99840.44;5074782;27;47158;-71
2022/12/14 11:49:33;;;;;;;;;11.00;10.00;;;;;25.06;32.75;99848.59;5078977;27;46508;-70
2022/12/14 11:52:08;;;;;;;;;11.00;11.00;;;;;25.05;32.61;99840.69;5076777;27;45611;-70
2022/12/14 11:54:36;;;;;;;;;10.67;10.33;;;;;25.03;32.32;99838.16;5079338;27;45675;-71
2022/12/14 11:57:09;;;;;;;;;5.67;5.00;;;;;25.03;32.54;99848.16;5077428;27;45776;-69
2022/12/14 11:59:41;;;;;;;;;9.67;9.67;;;;;25.06;32.37;99847.78;5082246;27;45366;-69
2022/12/14 12:02:34;;;;;;;;;11.67;10.33;;;;;25.06;32.40;99848.59;5074255;27;45425;-70
2022/12/14 12:05:16;;;;;;;;;11.00;10.67;;;;;25.07;32.56;99834.00;5083414;27;45332;-72
2022/12/14 12:07:51;;;;;;;;;9.00;8.67;;;;;25.05;32.48;99818.97;5078230;27;45440;-73
2022/12/14 12:10:24;;;;;;;;;12.33;11.33;;;;;25.03;32.61;99819.16;5078699;27;45390;-73
2022/12/14 12:12:59;;;;;;;;;12.67;10.00;;;;;25.08;32.57;99829.41;5077437;27;46327;-71
2022/12/14 12:15:31;;;;;;;;;11.00;10.00;;;;;25.10;32.30;99832.75;5083202;27;45472;-72
2022/12/14 12:18:24;;;;;;;;;10.67;10.33;;;;;25.12;32.34;99827.97;5084165;27;45514;-72
2022/12/14 12:21:11;;;;;;;;;12.00;11.67;;;;;25.16;32.20;99840.09;5081287;27;45457;-71
2022/12/14 12:23:39;;;;;;;;;10.00;10.00;;;;;25.21;32.18;99847.63;5082847;27;45363;-73
2022/12/14 12:26:15;;;;;;;;;9.00;9.00;;;;;25.23;32.13;99851.00;5085398;27;45768;-76
2022/12/14 12:28:50;;;;;;;;;9.33;9.33;;;;;25.26;32.16;99856.84;5084463;27;45488;-76
2022/12/14 12:31:24;;;;;;;;;9.33;9.33;;;;;25.29;32.26;99858.31;5086948;27;45790;-75
2022/12/14 12:34:12;;;;;;;;;9.33;8.67;;;;;25.28;32.03;99856.66;5082956;27;45882;-80
2022/12/14 12:36:38;;;;;;;;;10.67;10.00;;;;;25.27;32.23;99863.13;5081474;27;45296;-72
2022/12/14 12:39:14;;;;;;;;;9.33;9.33;;;;;25.25;32.17;99859.75;5091904;27;45673;-82
2022/12/14 12:41:51;;;;;;;;;8.33;8.33;;;;;25.23;32.19;99868.13;5077255;27;45629;-74
2022/12/14 12:44:19;;;;;;;;;8.67;8.67;;;;;25.24;31.92;99872.53;5080633;27;46208;-85
2022/12/14 12:47:26;;;;;;;;;10.67;8.33;;;;;25.28;32.36;99878.38;5087399;27;45506;-83
2022/12/14 12:49:52;;;;;;;;;11.00;9.67;;;;;25.27;32.14;99866.66;5080824;27;46489;-80
2022/12/14 12:52:55;;;;;;;;;12.33;11.33;;;;;25.45;32.36;99875.31;5085721;27;45480;-77
2022/12/14 12:55:25;;;;;;;;;7.67;7.67;;;;;25.52;32.66;99862.59;5051283;28;45677;-77
2022/12/14 12:57:55;;;;;;;;;12.00;9.00;;;;;25.63;32.38;99863.94;5051512;28;45466;-78
2022/12/14 13:00:26;;;;;;;;;6.67;5.00;;;;;25.68;32.27;99850.56;5052290;28;46339;-75
2022/12/14 13:02:55;;;;;;;;;11.67;10.00;;;;;25.77;32.16;99843.91;5049864;28;45675;-77
2022/12/14 13:05:24;;;;;;;;;10.33;9.33;;;;;25.87;32.13;99851.66;5045773;28;46734;-78
2022/12/14 13:07:54;;;;;;;;;7.50;7.50;;;;;25.96;32.59;99846.88;5048813;28;45568;-81
2022/12/14 13:10:30;;;;;;;;;11.33;9.00;;;;;26.01;31.98;99832.66;5049552;28;45985;-78
2022/12/14 13:13:25;;;;;;;;;9.00;9.00;;;;;26.10;32.25;99845.00;5047564;28;45728;-74
2022/12/14 13:15:55;;;;;;;;;12.67;11.33;;;;;26.17;32.46;99842.28;5050377;28;48453;-75
2022/12/14 13:18:39;;;;;;;;;11.67;9.33;;;;;26.26;32.10;99842.94;5050594;28;45695;-75
2022/12/14 13:21:28;;;;;;;;;8.00;8.00;;;;;26.28;31.78;99843.59;5052763;28;45433;-78
2022/12/14 13:23:54;;;;;;;;;9.33;9.33;;;;;26.32;32.39;99842.09;5044951;28;45491;-83
2022/12/14 13:26:29;;;;;;;;;6.00;6.00;;;;;26.36;32.40;99839.81;5046938;28;47379;-79
2022/12/14 13:29:05;;;;;;;;;7.33;7.33;;;;;26.36;32.30;99835.19;5047218;28;45958;-72
2022/12/14 13:32:04;;;;;;;;;9.67;8.00;;;;;26.37;32.00;99839.63;5080995;27;45858;-72
2022/12/14 13:34:36;;;;;;;;;10.00;10.00;;;;;26.41;32.12;99840.03;5093578;27;45701;-73
2022/12/14 13:37:08;;;;;;;;;10.00;10.00;;;;;26.45;32.09;99844.00;5085825;27;45636;-73
2022/12/14 13:39:59;;;;;;;;;8.33;8.00;;;;;26.49;32.41;99844.41;5091991;27;44858;-73
2022/12/14 13:42:51;;;;;;;;;8.67;7.67;;;;;26.51;31.90;99848.59;5084887;27;45831;-74
2022/12/14 13:45:28;;;;;;;;;8.00;8.00;;;;;26.49;32.23;99845.25;5088973;27;45612;-74
2022/12/14 13:47:58;;;;;;;;;7.00;7.00;;;;;26.57;32.47;99852.38;5092891;27;47840;-80
2022/12/14 13:50:28;;;;;;;;;8.67;8.67;;;;;26.64;31.93;99850.47;5094929;27;45433;-79
2022/12/14 13:53:02;;;;;;;;;8.67;8.67;;;;;26.65;32.37;99845.88;5086082;27;45323;-76
2022/12/14 13:55:35;;;;;;;;;7.67;7.67;;;;;26.71;32.39;99858.63;5096323;27;45822;-74
2022/12/14 13:58:21;;;;;;;;;1.67;1.67;;;;;26.68;32.47;99859.03;5095808;27;46027;-74
2022/12/14 14:00:54;;;;;;;;;7.33;7.33;;;;;26.63;32.21;99853.38;5086279;27;45387;-77
2022/12/14 14:03:35;;;;;;;;;8.67;8.67;;;;;26.63;32.11;99847.94;5086519;27;45716;-77
2022/12/14 14:06:22;;;;;;;;;8.67;8.33;;;;;26.62;31.86;99844.41;5085313;27;45659;-79
2022/12/14 14:08:50;;;;;;;;;8.00;8.00;;;;;26.57;31.50;99841.47;5086673;27;45551;-79
2022/12/14 14:11:21;;;;;;;;;12.67;11.67;;;;;26.54;32.07;99840.03;5088680;27;45390;-76
2022/12/14 14:13:47;;;;;;;;;14.00;10.67;;;;;26.47;31.62;99852.78;5098890;27;45535;-82
2022/12/14 14:16:19;;;;;;;;;12.67;10.00;;;;;26.39;31.76;99856.53;5091853;27;45927;-78
2022/12/14 14:18:56;;;;;;;;;10.00;10.00;;;;;26.28;31.54;99849.03;5090979;27;46350;-79
2022/12/14 14:21:37;;;;;;;;;8.67;7.67;;;;;26.30;31.78;99864.09;5093860;27;45612;-79
2022/12/14 14:24:14;;;;;;;;;8.67;8.67;;;;;26.33;32.09;99871.00;5101797;27;45427;-75
2022/12/14 14:26:41;;;;;;;;;11.00;10.00;;;;;26.30;31.86;99863.25;5084902;27;45635;-80
2022/12/14 14:29:22;;;;;;;;;9.33;8.00;;;;;26.48;32.18;99889.00;5102800;27;47539;-84
2022/12/14 14:31:52;;;;;;;;;10.00;8.00;;;;;26.48;31.48;99876.22;5086289;27;45331;-81
2022/12/14 14:34:23;;;;;;;;;11.00;8.00;;;;;26.58;32.09;99890.22;5095939;27;45346;-83
2022/12/14 14:36:49;;;;;;;;;7.00;7.00;;;;;26.66;31.86;99896.50;5097157;27;45627;-83
2022/12/14 14:39:36;;;;;;;;;10.67;9.67;;;;;26.70;31.48;99903.22;5089819;27;45407;-79
2022/12/14 14:42:05;;;;;;;;;11.00;9.00;;;;;26.73;31.43;99904.69;5088292;27;45560;-78
2022/12/14 14:44:36;;;;;;;;;8.00;8.00;;;;;26.73;31.34;99913.66;5091857;27;45469;-85
2022/12/14 14:47:12;;;;;;;;;10.67;9.33;;;;;26.72;31.40;99913.91;5094062;27;45565;-75
2022/12/14 14:49:42;;;;;;;;;9.67;8.67;;;;;26.71;31.90;99907.59;5092506;27;46439;-77
2022/12/14 14:52:38;;;;;;;;;8.00;8.00;;;;;26.74;32.06;99914.50;5082916;27;45443;-80
2022/12/14 14:55:35;;;;;;;;;9.00;7.67;;;;;26.79;32.01;99925.59;5084954;27;45514;-74
2022/12/14 14:58:18;;;;;;;;;8.67;8.67;;;;;26.81;31.93;99932.50;5088430;27;45445;-77
2022/12/14 15:00:57;;;;;;;;;10.00;9.00;;;;;26.82;31.44;99923.28;5091448;27;45523;-82
2022/12/14 15:03:32;;;;;;;;;8.33;8.33;;;;;26.86;32.16;99928.31;5080453;27;46678;-75
2022/12/14 15:05:58;;;;;;;;;10.00;9.33;;;;;26.86;31.96;99918.28;5092560;27;45409;-74
2022/12/14 15:08:42;;;;;;;;;7.00;7.00;;;;;26.90;31.74;99915.97;5087983;27;46141;-74
2022/12/14 15:11:17;;;;;;;;;8.00;8.00;;;;;26.96;32.17;99917.88;5075448;27;46431;-74
2022/12/14 15:13:52;;;;;;;;;8.00;7.67;;;;;27.01;31.44;99914.53;5076754;27;47061;-73
2022/12/14 15:16:32;;;;;;;;;7.67;7.67;;;;;27.01;31.72;99909.09;5079620;27;45517;-78
2022/12/14 15:19:24;;;;;;;;;8.67;7.00;;;;;27.03;31.98;99924.16;5091099;27;46948;-82
2022/12/14 15:21:56;;;;;;;;;7.67;7.67;;;;;27.00;31.68;99940.06;5095419;27;46252;-87
2022/12/14 15:24:23;;;;;;;;;8.00;8.00;;;;;26.99;31.35;99930.22;5089052;27;45524;-83
2022/12/14 15:26:49;;;;;;;;;9.33;8.33;;;;;27.02;31.68;99932.53;5119184;27;45417;-80
2022/12/14 15:29:26;;;;;;;;;8.00;8.00;;;;;27.03;31.88;99931.47;5085745;27;45816;-83
2022/12/14 15:31:59;;;;;;;;;9.00;9.00;;;;;27.01;31.68;99923.50;5075124;27;46628;-78
2022/12/14 15:34:25;;;;;;;;;10.33;9.67;;;;;26.99;31.43;99932.94;5088318;27;45784;-75
2022/12/14 15:36:53;;;;;;;;;9.00;9.00;;;;;27.09;31.34;99945.09;5086569;27;45529;-75
2022/12/14 15:39:35;;;;;;;;;8.00;8.00;;;;;27.14;31.52;99949.06;5077874;27;45554;-72
2022/12/14 15:42:09;;;;;;;;;9.33;9.33;;;;;27.17;31.61;99930.41;5085289;27;47475;-73
2022/12/14 15:44:34;;;;;;;;;14.00;12.33;;;;;27.15;31.31;99929.78;5078504;27;45436;-71
2022/12/14 15:47:00;;;;;;;;;8.67;7.00;;;;;27.17;31.31;99933.13;5095612;27;45641;-73
2022/12/14 15:49:25;;;;;;;;;14.67;12.00;;;;;27.10;31.84;99938.59;5100913;27;45631;-79
2022/12/14 15:51:52;;;;;;;;;9.33;8.33;;;;;27.01;31.13;99936.31;5096741;27;45948;-78
2022/12/14 15:54:21;;;;;;;;;12.00;10.00;;;;;27.00;31.70;99951.81;5093039;27;45468;-73
2022/12/14 15:56:55;;;;;;;;;9.00;8.67;;;;;26.94;31.71;99941.75;5098475;27;45577;-74
2022/12/14 15:59:32;;;;;;;;;10.33;10.33;;;;;26.94;31.45;99947.22;5080726;27;45674;-72
2022/12/14 16:02:17;;;;;;;;;12.33;12.00;;;;;26.89;31.39;99964.13;5097967;27;45537;-80
2022/12/14 16:04:44;;;;;;;;;10.67;10.00;;;;;26.82;31.50;99969.56;5106897;27;45399;-76
2022/12/14 16:07:17;;;;;;;;;10.33;10.33;;;;;26.75;31.48;99970.63;5096256;27;45389;-75
2022/12/14 16:09:53;;;;;;;;;9.33;8.67;;;;;26.72;31.72;99980.03;5107140;27;45409;-75
2022/12/14 16:12:26;;;;;;;;;9.67;9.67;;;;;26.71;31.34;99967.50;5097643;27;46124;-74
2022/12/14 16:15:00;;;;;;;;;10.33;8.33;;;;;26.70;31.38;99973.97;5107683;27;45509;-75
2022/12/14 16:17:29;;;;;;;;;10.67;10.00;;;;;26.74;31.19;99975.25;5082986;27;45494;-76
2022/12/14 16:20:02;;;;;;;;;9.00;8.33;;;;;26.77;31.26;99969.38;5085175;27;45519;-76
2022/12/14 16:22:32;;;;;;;;;7.67;7.67;;;;;26.84;31.63;99983.81;5079918;27;46355;-75
2022/12/14 16:25:10;;;;;;;;;7.67;7.67;;;;;26.87;31.13;99976.28;5092718;27;45560;-80
2022/12/14 16:27:39;;;;;;;;;9.67;9.00;;;;;26.95;31.35;99976.09;5098258;27;45440;-82
2022/12/14 16:30:18;;;;;;;;;9.33;9.00;;;;;26.98;31.64;99975.69;5100626;27;45462;-74
2022/12/14 16:32:48;;;;;;;;;11.00;9.33;;;;;27.02;31.46;99966.03;5078685;27;45600;-75
2022/12/14 16:35:18;;;;;;;;;8.00;8.00;;;;;27.07;31.66;99968.13;5074994;27;45488;-74
2022/12/14 16:37:44;;;;;;;;;10.67;9.00;;;;;27.07;31.44;99973.59;5078142;27;45514;-77
2022/12/14 16:40:33;;;;;;;;;9.67;8.00;;;;;27.13;31.59;99982.81;5078370;27;45498;-79
2022/12/14 16:42:59;;;;;;;;;11.00;7.00;;;;;27.09;31.57;99969.59;5079961;27;46003;-78
2022/12/14 16:45:34;;;;;;;;;9.00;9.00;;;;;27.12;31.05;99970.22;5082755;27;45807;-79
2022/12/14 16:48:07;;;;;;;;;7.00;7.00;;;;;27.12;31.51;99956.59;5081522;27;45598;-77
2022/12/14 16:50:32;;;;;;;;;7.67;7.67;;;;;27.11;31.32;99953.06;5080240;27;45777;-75
2022/12/14 16:53:14;;;;;;;;;8.67;8.00;;;;;27.16;31.57;99957.84;5084689;27;45454;-84
2022/12/14 16:56:00;;;;;;;;;11.67;8.67;;;;;27.20;31.50;99959.94;5078144;27;45496;-88
2022/12/14 16:58:25;;;;;;;;;9.00;8.67;;;;;27.22;31.33;99965.19;5080495;27;45454;-88
2022/12/14 17:01:01;;;;;;;;;7.00;7.00;;;;;27.26;31.66;99957.44;5086952;27;45792;-88
2022/12/14 17:03:30;;;;;;;;;8.67;8.67;;;;;27.31;30.97;99952.16;5078795;27;46408;-88
2022/12/14 17:06:00;;;;;;;;;7.00;7.00;;;;;27.38;31.68;99971.22;5081622;27;45461;-80
2022/12/14 17:08:26;;;;;;;;;9.00;9.00;;;;;27.41;30.86;99987.97;5083127;27;45859;-84
2022/12/14 17:10:51;;;;;;;;;9.33;7.67;;;;;27.40;31.07;100012.72;5081526;27;45579;-78
2022/12/14 17:13:20;;;;;;;;;10.33;9.67;;;;;27.37;31.43;99994.91;5079841;27;45552;-78
2022/12/14 17:16:06;;;;;;;;;11.33;10.67;;;;;27.27;31.44;99986.34;5085465;27;45728;-76
2022/12/14 17:18:36;;;;;;;;;9.33;9.33;;;;;27.30;30.92;99994.09;5099072;27;45716;-76
2022/12/14 17:21:05;;;;;;;;;10.00;10.00;;;;;27.27;31.52;99989.06;5090143;27;45490;-76
2022/12/14 17:23:31;;;;;;;;;12.67;12.00;;;;;27.25;31.04;99988.44;5074920;27;45647;-77
2022/12/14 17:26:00;;;;;;;;;9.67;9.67;;;;;27.23;31.21;99988.66;5083789;27;45691;-76
2022/12/14 17:28:28;;;;;;;;;10.67;10.67;;;;;27.20;31.26;99991.78;5083508;27;45621;-75
2022/12/14 17:30:57;;;;;;;;;10.00;10.00;;;;;27.15;31.32;99983.41;5076417;27;45653;-75
2022/12/14 17:33:27;;;;;;;;;9.67;9.33;;;;;27.09;30.75;99976.91;5082789;27;45639;-75
2022/12/14 17:35:54;;;;;;;;;9.00;9.00;;;;;27.05;31.36;99979.25;5085288;27;45631;-74
2022/12/14 17:38:21;;;;;;;;;8.00;8.00;;;;;27.08;31.38;99981.53;5085374;27;45454;-75
2022/12/14 17:40:48;;;;;;;;;10.00;10.00;;;;;27.11;31.38;99991.19;5085952;27;45563;-74
2022/12/14 17:43:21;;;;;;;;;10.00;8.67;;;;;27.13;31.36;100002.69;5081716;27;45553;-73
2022/12/14 17:45:46;;;;;;;;;7.67;7.67;;;;;27.18;31.12;100015.69;5082309;27;45807;-75
2022/12/14 17:48:15;;;;;;;;;7.67;7.00;;;;;27.22;30.77;100023.22;5082043;27;45507;-79
2022/12/14 17:50:48;;;;;;;;;8.33;8.00;;;;;27.22;31.02;100014.22;5084823;27;45857;-77
2022/12/14 17:53:18;;;;;;;;;7.67;7.00;;;;;27.28;31.31;100020.69;5082115;27;45428;-76
